NTAA

Fa'a'ā International Airport

Airport
ICAO code
NTAA
IATA Code
PPT
Summary
ICAO Region
APAC
ICAO Territory
Location

Fa'a'ā, Tahiti,

Serving
Pape'ete
Elevation
7 ft
Coordinates
17° 33' 13" S , 149° 36' 25" W
KCC
Metar
Observation
NTAA 060400Z 27008KT 9999 FEW023 27/20 Q1016 NOSIG
Station
Tahiti-Faaa
Date/Time
2022-10-06 04:00:00
Wind direction
270°
Wind speed
08 kts
Lowest cloud amount
few clouds
Temperature
27°C
Dew point
20°C
Humidity
65%
QNH
1016 hPa
Weather condition
n/a

Description

Faa'a International Airport or Tahiti Faa'a International Airport is located in the commune (municipality) of Faa'a, on the island of Tahiti, French Polynesia, 5 km west southwest from the town center of Papeete, the capital of French Polynesia. It is the only airport in French Polynesia serving international flights.

Climatology

Tropical Monsoon climate (Köppen climate classification Am) - monthly mean temperatures above 18°C in every month of the year and features wet and dry seasons. A tropical monsoon climate typically features less pronounced dry seasons than a tropical savanna climate and see less variance in temperatures during the course of the year. The driest month nearly always occurs at or soon after the "winter" solstice.

Runways

Designator Length Width Surface Rops
4/22 3463 45 ASP Yes/Yes

Airport map

Aerial View

SKYbrary Partners:

Safety knowledge contributed by: